Terminal Aerodrome Forecast
Issued by NWS

Home | Current Version | Previous Version | Graphics & Text | Print | Product List | Glossary On
Versions: 1 2 3 4 5 6 7 8 9 10 11 12 13 14
000
FTUS43 KOAX 230520
TAFCDR
TAF
KCDR 230520Z 2306/2406 VRB05KT 6SM -TSRA OVC060CB
      TEMPO 2306/2308 4SM -TSRA OVC040CB
     FM230800 VRB05KT 2SM BR OVC040
     FM231300 22008KT P6SM BKN100
     FM231800 20009KT P6SM BKN100
     FM240100 30005KT P6SM BKN100=

USA.gov is the U.S. government's official web portal to all federal, state and local government web resources and services.